ADDS METAR Data INFO
IDs: Format: Raw Decoded Include TAF

Data at: 1114 UTC 13 Dec 2017

K2W6 131106Z AUTO 28009G15KT 10SM CLR M05/M17 A2983 RMK AO1
K2W6 131046Z AUTO 31009G18KT 260V030 10SM CLR M05/M17 A2983 RMK AO1
K2W6 131026Z AUTO 29011G17KT 10SM CLR M05/M17 A2982 RMK AO1
K2W6 131006Z AUTO 28011G20KT CLR M05/M17 A2981 RMK AO1
K2W6 130946Z AUTO 30006G14KT 260V330 10SM CLR M05/M17 A2981 RMK AO1
K2W6 130926Z AUTO 28012G17KT 10SM CLR M05/M17 A2980 RMK AO1
K2W6 130906Z AUTO 29011G17KT 270V350 10SM CLR M05/M17 A2980 RMK AO1
K2W6 130846Z AUTO 29009G20KT 260V320 10SM CLR M05/M17 A2980 RMK AO1
K2W6 130826Z AUTO 29008G18KT 10SM CLR M05/M18 A2980 RMK AO1
K2W6 130806Z AUTO 30013G22KT 270V330 10SM CLR M05/M18 A2980 RMK AO1
K2W6 130746Z AUTO 30017G26KT 10SM CLR M05/M18 A2979 RMK AO1
K2W6 130726Z AUTO 30009G17KT 260V330 10SM CLR M05/M18 A2979 RMK AO1
K2W6 130706Z AUTO 29013G20KT 270V330 10SM SCT060 M05/M17 A2978 RMK AO1
K2W6 130646Z AUTO 30006G15KT 10SM SCT060 M04/M15 A2978 RMK AO1
K2W6 130626Z AUTO 29012G23KT 10SM SCT055 M04/M16 A2976 RMK AO1
K2W6 130606Z AUTO 29011G17KT 10SM BKN065 M03/M16 A2975 RMK AO1
K2W6 130546Z AUTO 29008G20KT 10SM BKN065 M03/M16 A2975 RMK AO1
K2W6 130526Z AUTO 30010G30KT 10SM SCT065 M03/M17 A2975 RMK AO1
K2W6 130506Z AUTO 30014G26KT 10SM SCT060 M03/M17 A2975 RMK AO1
K2W6 130446Z AUTO 30013G25KT 260V330 10SM SCT060 M03/M17 A2974 RMK AO1
K2W6 130426Z AUTO 31010G23KT 280V340 10SM CLR M03/M16 A2974 RMK AO1
K2W6 130406Z AUTO 28014G24KT 10SM CLR M02/M16 A2973 RMK AO1
K2W6 130346Z AUTO 28022G28KT 10SM CLR M02/M15 A2971 RMK AO1
K2W6 130326Z AUTO 29012G22KT 270V340 10SM CLR M02/M15 A2971 RMK AO1
K2W6 130306Z AUTO 29013G21KT 270V340 10SM CLR M02/M14 A2970 RMK AO1
K2W6 130246Z AUTO 31012G22KT 10SM SCT047 BKN060 M01/M12 A2970 RMK AO1
K2W6 130226Z AUTO 29011G20KT 10SM SCT043 BKN060 M01/M10 A2969 RMK AO1
K2W6 130206Z AUTO 30010G19KT 10SM BKN050 00/M09 A2969 RMK AO1
K2W6 130146Z AUTO 30010G19KT 10SM SCT044 BKN050 00/M07 A2968 RMK AO1
K2W6 130126Z AUTO 29012G19KT 10SM SCT065 BKN070 01/M08 A2966 RMK AO1
K2W6 130106Z AUTO 30013G22KT 270V330 10SM SCT049 OVC060 01/M08 A2966 RMK AO1
K2W6 130046Z AUTO 28011G20KT 10SM SCT049 BKN055 OVC065 02/M08 A2966 RMK AO1
K2W6 130026Z AUTO 30016G25KT 10SM SCT043 BKN049 OVC055 02/M07 A2965 RMK AO1
K2W6 130006Z AUTO 29010G21KT 270V350 10SM SCT029 SCT033 OVC046 03/M07 A2964 RMK AO1
K2W6 122346Z AUTO 31011G17KT 10SM SCT027 BKN035 OVC046 03/M05 A2963 RMK AO1
K2W6 122326Z AUTO 29014G21KT 260V320 10SM SCT027 SCT035 OVC046 03/M05 A2962 RMK AO1
K2W6 122306Z AUTO 30011G23KT 10SM SCT035 BKN043 OVC050 04/M04 A2961 RMK AO1
K2W6 122246Z AUTO 29013G20KT 10SM SCT031 BKN043 OVC050 05/M03 A2959 RMK AO1
K2W6 122226Z AUTO 31011G22KT 10SM SCT031 BKN044 OVC050 06/M02 A2958 RMK AO1
K2W6 122206Z AUTO 30007KT 10SM SCT043 SCT048 OVC050 06/M01 A2956 RMK AO1
K2W6 122146Z AUTO 30005KT 10SM SCT042 BKN050 OVC065 06/M01 A2956 RMK AO1
K2W6 122126Z AUTO 31005KT 10SM SCT042 BKN050 OVC055 07/00 A2955 RMK AO1
K2W6 122106Z AUTO 00000KT 10SM BKN055 OVC075 07/00 A2955 RMK AO1
K2W6 122046Z AUTO 29003KT 10SM BKN055 OVC075 07/00 A2954 RMK AO1
K2W6 122026Z AUTO 00000KT 10SM OVC055 07/01 A2953 RMK AO1
K2W6 122006Z AUTO 28003KT 10SM BKN055 OVC065 07/01 A2953 RMK AO1
K2W6 121946Z AUTO 25003KT 10SM OVC060 07/01 A2953 RMK AO1
K2W6 121926Z AUTO 25004KT 10SM OVC060 07/01 A2953 RMK AO1
K2W6 121906Z AUTO 26004KT 10SM OVC050 07/01 A2953 RMK AO1
K2W6 121846Z AUTO 00000KT 10SM SCT030 BKN043 OVC050 07/01 A2952 RMK AO1
K2W6 121826Z AUTO 25003KT 10SM SCT034 BKN041 OVC050 07/01 A2953 RMK AO1
K2W6 121806Z AUTO 26004KT 10SM SCT050 BKN055 OVC075 07/01 A2954 RMK AO1
K2W6 121746Z AUTO 26006KT 10SM SCT070 BKN090 OVC110 07/01 A2953 RMK AO1
K2W6 121726Z AUTO 25005KT 10SM SCT100 07/01 A2955 RMK AO1
K2W6 121706Z AUTO 25006KT 10SM SCT100 07/01 A2956 RMK AO1
K2W6 121646Z AUTO 27006KT 10SM BKN100 06/00 A2957 RMK AO1
K2W6 121626Z AUTO 29007KT 10SM BKN110 06/01 A2958 RMK AO1
K2W6 121606Z AUTO 28005KT 10SM SCT110 06/01 A2959 RMK AO1
K2W6 121546Z AUTO 27008G15KT 10SM BKN110 06/01 A2960 RMK AO1
K2W6 121526Z AUTO 26009KT 10SM SCT110 07/01 A2960 RMK AO1
K2W6 121506Z AUTO 23007KT 10SM SCT110 06/01 A2960 RMK AO1
K2W6 121446Z AUTO 24007G10KT 10SM BKN110 06/01 A2960 RMK AO1
K2W6 121426Z AUTO 22009KT 10SM BKN110 05/00 A2961 RMK AO1
K2W6 121406Z AUTO 23008KT 10SM BKN120 05/00 A2961 RMK AO1
K2W6 121346Z AUTO 21007KT 10SM SCT120 05/00 A2962 RMK AO1
K2W6 121326Z AUTO 22008G14KT 10SM CLR 05/00 A2962 RMK AO1
K2W6 121306Z AUTO 21007KT 10SM CLR 05/00 A2962 RMK AO1
K2W6 121246Z AUTO 20005KT 10SM CLR 05/00 A2963 RMK AO1
K2W6 121226Z AUTO 21008KT 10SM CLR 05/00 A2964 RMK AO1
K2W6 121206Z AUTO 20006KT 10SM CLR 05/00 A2964 RMK AO1
K2W6 121146Z AUTO 21005KT 10SM CLR 05/00 A2966 RMK AO1
K2W6 121126Z AUTO 20005KT 10SM CLR 05/00 A2967 RMK AO1
K2W6 121106Z AUTO 21006KT 10SM CLR 05/00 A2968 RMK AO1
K2W6 121046Z AUTO 21005KT 10SM CLR 05/00 A2968 RMK AO1
K2W6 121026Z AUTO 20006KT 10SM CLR 06/00 A2969 RMK AO1
K2W6 121006Z AUTO 20007KT 10SM CLR 06/00 A2970 RMK AO1
K2W6 120946Z AUTO 00000KT 10SM SCT110 06/00 A2970 RMK AO1
K2W6 120926Z AUTO 19006KT 160V230 10SM SCT110 06/00 A2972 RMK AO1
K2W6 120906Z AUTO 19005KT 10SM CLR 05/00 A2973 RMK AO1
K2W6 120846Z AUTO 19006KT 10SM CLR 05/00 A2975 RMK AO1
K2W6 120826Z AUTO 18007KT 10SM SCT120 05/00 A2976 RMK AO1
K2W6 120806Z AUTO 18005KT 10SM SCT120 05/00 A2978 RMK AO1
K2W6 120746Z AUTO 18005KT 10SM CLR 05/00 A2980 RMK AO1
K2W6 120726Z AUTO 17004KT 10SM CLR 05/00 A2981 RMK AO1
K2W6 120706Z AUTO 20005KT 10SM CLR 05/00 A2983 RMK AO1
K2W6 120646Z AUTO 17004KT 10SM CLR 05/00 A2983 RMK AO1
K2W6 120626Z AUTO 16008KT 10SM CLR 05/00 A2983 RMK AO1
K2W6 120606Z AUTO 16005KT 10SM CLR 05/00 A2984 RMK AO1
K2W6 120546Z AUTO 17003KT 10SM CLR 05/00 A2986 RMK AO1
K2W6 120526Z AUTO 17004KT 10SM CLR 05/00 A2987 RMK AO1
K2W6 120506Z AUTO 16004KT 10SM CLR 05/00 A2988 RMK AO1
K2W6 120446Z AUTO 15004KT 10SM CLR 05/00 A2989 RMK AO1
K2W6 120426Z AUTO 15005KT 10SM CLR 05/00 A2991 RMK AO1
K2W6 120406Z AUTO 15005KT 10SM CLR 04/00 A2992 RMK AO1
K2W6 120346Z AUTO 15003KT 10SM CLR 03/00 A2993 RMK AO1
K2W6 120326Z AUTO 14003KT 10SM CLR 03/00 A2994 RMK AO1
K2W6 120306Z AUTO 14003KT 10SM CLR 03/00 A2996 RMK AO1
K2W6 120246Z AUTO 13003KT 10SM CLR 02/00 A2996 RMK AO1
K2W6 120226Z AUTO 13003KT 10SM CLR 01/00 A2997 RMK AO1
K2W6 120206Z AUTO 12003KT 10SM CLR 01/00 A2998 RMK AO1
K2W6 120146Z AUTO 00000KT 10SM CLR 01/00 A2998 RMK AO1
K2W6 120126Z AUTO 00000KT 10SM CLR 02/00 A2998 RMK AO1
K2W6 120106Z AUTO 12003KT 10SM CLR 02/00 A2999 RMK AO1
K2W6 120046Z AUTO 13003KT 10SM CLR 03/00 A2999 RMK AO1
K2W6 120026Z AUTO 14003KT 10SM CLR 03/00 A2999 RMK AO1
K2W6 120006Z AUTO 13003KT 10SM CLR 03/00 A2999 RMK AO1
K2W6 112346Z AUTO 12003KT 10SM CLR 03/00 A2999 RMK AO1
K2W6 112326Z AUTO 13005KT 10SM CLR 03/00 A2999 RMK AO1